<?xml version="1.0" encoding="UTF-8" standalone="no" ?>
<gpx xmlns="http://www.topografix.com/GPX/1/1" xmlns:xsi="http://www.w3.org/2001/XMLSchema-instance" xsi:schemaLocation="http://www.topografix.com/GPX/1/1 http://www.topografix.com/GPX/1/1/gpx.xsd" version="1.1" creator="VisuGPX - https://www.visugpx.com">
  <metadata>
    <name>Pic de l'Estibette, 1851m, Soum de Granquet, depuis le col de Spandelles.</name>
  </metadata>
  <trk>
    <name><![CDATA[Pic de l'Estibette, 1851m, Soum de Granquet, depuis le col de Spandelles.]]></name>
    <trkseg>
      <trkpt lat="43.0024" lon="-0.21407">
        <ele>1231</ele>
        <time>2023-03-18T08:25:31+01:00</time>
      </trkpt>
      <trkpt lat="43.00262" lon="-0.214">
        <ele>1233</ele>
        <time>2023-03-18T08:25:47+01:00</time>
      </trkpt>
      <trkpt lat="43.00286" lon="-0.21386">
        <ele>1233</ele>
        <time>2023-03-18T08:26:19+01:00</time>
      </trkpt>
      <trkpt lat="43.00307" lon="-0.21364">
        <ele>1242</ele>
        <time>2023-03-18T08:26:38+01:00</time>
      </trkpt>
      <trkpt lat="43.00331" lon="-0.21352">
        <ele>1252</ele>
        <time>2023-03-18T08:26:58+01:00</time>
      </trkpt>
      <trkpt lat="43.00353" lon="-0.2134">
        <ele>1257</ele>
        <time>2023-03-18T08:27:15+01:00</time>
      </trkpt>
      <trkpt lat="43.00376" lon="-0.21326">
        <ele>1258</ele>
        <time>2023-03-18T08:27:37+01:00</time>
      </trkpt>
      <trkpt lat="43.00396" lon="-0.21308">
        <ele>1257</ele>
        <time>2023-03-18T08:27:55+01:00</time>
      </trkpt>
      <trkpt lat="43.00416" lon="-0.2129">
        <ele>1260</ele>
        <time>2023-03-18T08:28:18+01:00</time>
      </trkpt>
      <trkpt lat="43.00437" lon="-0.21274">
        <ele>1263</ele>
        <time>2023-03-18T08:28:44+01:00</time>
      </trkpt>
      <trkpt lat="43.00458" lon="-0.21256">
        <ele>1266</ele>
        <time>2023-03-18T08:29:06+01:00</time>
      </trkpt>
      <trkpt lat="43.00478" lon="-0.21233">
        <ele>1265</ele>
        <time>2023-03-18T08:29:28+01:00</time>
      </trkpt>
      <trkpt lat="43.00501" lon="-0.2122">
        <ele>1268</ele>
        <time>2023-03-18T08:29:51+01:00</time>
      </trkpt>
      <trkpt lat="43.00523" lon="-0.21209">
        <ele>1265</ele>
        <time>2023-03-18T08:30:16+01:00</time>
      </trkpt>
      <trkpt lat="43.00543" lon="-0.21193">
        <ele>1272</ele>
        <time>2023-03-18T08:30:36+01:00</time>
      </trkpt>
      <trkpt lat="43.00563" lon="-0.21176">
        <ele>1275</ele>
        <time>2023-03-18T08:30:55+01:00</time>
      </trkpt>
      <trkpt lat="43.00582" lon="-0.21158">
        <ele>1274</ele>
        <time>2023-03-18T08:31:16+01:00</time>
      </trkpt>
      <trkpt lat="43.00595" lon="-0.21132">
        <ele>1278</ele>
        <time>2023-03-18T08:31:38+01:00</time>
      </trkpt>
      <trkpt lat="43.00617" lon="-0.21116">
        <ele>1283</ele>
        <time>2023-03-18T08:32:01+01:00</time>
      </trkpt>
      <trkpt lat="43.00638" lon="-0.21102">
        <ele>1285</ele>
        <time>2023-03-18T08:32:23+01:00</time>
      </trkpt>
      <trkpt lat="43.0066" lon="-0.21086">
        <ele>1287</ele>
        <time>2023-03-18T08:32:53+01:00</time>
      </trkpt>
      <trkpt lat="43.00677" lon="-0.21064">
        <ele>1290</ele>
        <time>2023-03-18T08:33:16+01:00</time>
      </trkpt>
      <trkpt lat="43.007" lon="-0.21055">
        <ele>1292</ele>
        <time>2023-03-18T08:33:37+01:00</time>
      </trkpt>
      <trkpt lat="43.00722" lon="-0.21046">
        <ele>1291</ele>
        <time>2023-03-18T08:33:56+01:00</time>
      </trkpt>
      <trkpt lat="43.00738" lon="-0.21022">
        <ele>1294</ele>
        <time>2023-03-18T08:34:21+01:00</time>
      </trkpt>
      <trkpt lat="43.00753" lon="-0.20996">
        <ele>1294</ele>
        <time>2023-03-18T08:34:43+01:00</time>
      </trkpt>
      <trkpt lat="43.00777" lon="-0.20987">
        <ele>1299</ele>
        <time>2023-03-18T08:35:11+01:00</time>
      </trkpt>
      <trkpt lat="43.00799" lon="-0.21005">
        <ele>1307</ele>
        <time>2023-03-18T08:35:30+01:00</time>
      </trkpt>
      <trkpt lat="43.00823" lon="-0.21007">
        <ele>1306</ele>
        <time>2023-03-18T08:35:55+01:00</time>
      </trkpt>
      <trkpt lat="43.00846" lon="-0.21018">
        <ele>1302</ele>
        <time>2023-03-18T08:36:15+01:00</time>
      </trkpt>
      <trkpt lat="43.00856" lon="-0.21046">
        <ele>1302</ele>
        <time>2023-03-18T08:36:35+01:00</time>
      </trkpt>
      <trkpt lat="43.00863" lon="-0.2108">
        <ele>1308</ele>
        <time>2023-03-18T08:36:59+01:00</time>
      </trkpt>
      <trkpt lat="43.00868" lon="-0.21111">
        <ele>1311</ele>
        <time>2023-03-18T08:37:21+01:00</time>
      </trkpt>
      <trkpt lat="43.00866" lon="-0.21145">
        <ele>1309</ele>
        <time>2023-03-18T08:37:43+01:00</time>
      </trkpt>
      <trkpt lat="43.00872" lon="-0.21175">
        <ele>1315</ele>
        <time>2023-03-18T08:38:03+01:00</time>
      </trkpt>
      <trkpt lat="43.00878" lon="-0.21206">
        <ele>1318</ele>
        <time>2023-03-18T08:38:23+01:00</time>
      </trkpt>
      <trkpt lat="43.00893" lon="-0.21233">
        <ele>1323</ele>
        <time>2023-03-18T08:38:47+01:00</time>
      </trkpt>
      <trkpt lat="43.00907" lon="-0.2126">
        <ele>1327</ele>
        <time>2023-03-18T08:39:04+01:00</time>
      </trkpt>
      <trkpt lat="43.00911" lon="-0.21294">
        <ele>1328</ele>
        <time>2023-03-18T08:39:32+01:00</time>
      </trkpt>
      <trkpt lat="43.00902" lon="-0.21325">
        <ele>1332</ele>
        <time>2023-03-18T08:39:51+01:00</time>
      </trkpt>
      <trkpt lat="43.00902" lon="-0.21356">
        <ele>1339</ele>
        <time>2023-03-18T08:40:17+01:00</time>
      </trkpt>
      <trkpt lat="43.00909" lon="-0.21388">
        <ele>1344</ele>
        <time>2023-03-18T08:40:39+01:00</time>
      </trkpt>
      <trkpt lat="43.00917" lon="-0.21419">
        <ele>1346</ele>
        <time>2023-03-18T08:40:58+01:00</time>
      </trkpt>
      <trkpt lat="43.0092" lon="-0.21452">
        <ele>1346</ele>
        <time>2023-03-18T08:41:33+01:00</time>
      </trkpt>
      <trkpt lat="43.00936" lon="-0.21478">
        <ele>1348</ele>
        <time>2023-03-18T08:41:52+01:00</time>
      </trkpt>
      <trkpt lat="43.00961" lon="-0.21472">
        <ele>1354</ele>
        <time>2023-03-18T08:42:09+01:00</time>
      </trkpt>
      <trkpt lat="43.0098" lon="-0.21493">
        <ele>1353</ele>
        <time>2023-03-18T08:42:28+01:00</time>
      </trkpt>
      <trkpt lat="43.00994" lon="-0.21519">
        <ele>1357</ele>
        <time>2023-03-18T08:43:06+01:00</time>
      </trkpt>
      <trkpt lat="43.01013" lon="-0.2154">
        <ele>1357</ele>
        <time>2023-03-18T08:43:25+01:00</time>
      </trkpt>
      <trkpt lat="43.01029" lon="-0.21563">
        <ele>1359</ele>
        <time>2023-03-18T08:43:45+01:00</time>
      </trkpt>
      <trkpt lat="43.01047" lon="-0.21587">
        <ele>1366</ele>
        <time>2023-03-18T08:44:17+01:00</time>
      </trkpt>
      <trkpt lat="43.01066" lon="-0.21606">
        <ele>1365</ele>
        <time>2023-03-18T08:44:35+01:00</time>
      </trkpt>
      <trkpt lat="43.01082" lon="-0.21629">
        <ele>1369</ele>
        <time>2023-03-18T08:45:01+01:00</time>
      </trkpt>
      <trkpt lat="43.01107" lon="-0.21631">
        <ele>1375</ele>
        <time>2023-03-18T08:45:20+01:00</time>
      </trkpt>
      <trkpt lat="43.0113" lon="-0.21626">
        <ele>1383</ele>
        <time>2023-03-18T08:45:42+01:00</time>
      </trkpt>
      <trkpt lat="43.01152" lon="-0.21615">
        <ele>1387</ele>
        <time>2023-03-18T08:46:09+01:00</time>
      </trkpt>
      <trkpt lat="43.01176" lon="-0.2162">
        <ele>1384</ele>
        <time>2023-03-18T08:46:29+01:00</time>
      </trkpt>
      <trkpt lat="43.01162" lon="-0.21649">
        <ele>1381</ele>
        <time>2023-03-18T08:46:46+01:00</time>
      </trkpt>
      <trkpt lat="43.01142" lon="-0.21663">
        <ele>1378</ele>
        <time>2023-03-18T08:47:25+01:00</time>
      </trkpt>
      <trkpt lat="43.01125" lon="-0.21685">
        <ele>1387</ele>
        <time>2023-03-18T08:47:45+01:00</time>
      </trkpt>
      <trkpt lat="43.01109" lon="-0.21708">
        <ele>1390</ele>
        <time>2023-03-18T08:48:08+01:00</time>
      </trkpt>
      <trkpt lat="43.01093" lon="-0.21732">
        <ele>1392</ele>
        <time>2023-03-18T08:48:31+01:00</time>
      </trkpt>
      <trkpt lat="43.0107" lon="-0.21732">
        <ele>1398</ele>
        <time>2023-03-18T08:48:53+01:00</time>
      </trkpt>
      <trkpt lat="43.01047" lon="-0.21729">
        <ele>1400</ele>
        <time>2023-03-18T08:49:15+01:00</time>
      </trkpt>
      <trkpt lat="43.01023" lon="-0.21727">
        <ele>1406</ele>
        <time>2023-03-18T08:49:37+01:00</time>
      </trkpt>
      <trkpt lat="43.01002" lon="-0.21713">
        <ele>1402</ele>
        <time>2023-03-18T08:49:57+01:00</time>
      </trkpt>
      <trkpt lat="43.00983" lon="-0.21697">
        <ele>1405</ele>
        <time>2023-03-18T08:50:19+01:00</time>
      </trkpt>
      <trkpt lat="43.00959" lon="-0.21689">
        <ele>1406</ele>
        <time>2023-03-18T08:50:39+01:00</time>
      </trkpt>
      <trkpt lat="43.0095" lon="-0.21718">
        <ele>1413</ele>
        <time>2023-03-18T08:51:03+01:00</time>
      </trkpt>
      <trkpt lat="43.00971" lon="-0.21735">
        <ele>1413</ele>
        <time>2023-03-18T08:51:22+01:00</time>
      </trkpt>
      <trkpt lat="43.0099" lon="-0.21753">
        <ele>1417</ele>
        <time>2023-03-18T08:51:42+01:00</time>
      </trkpt>
      <trkpt lat="43.01009" lon="-0.21774">
        <ele>1419</ele>
        <time>2023-03-18T08:52:02+01:00</time>
      </trkpt>
      <trkpt lat="43.01031" lon="-0.21793">
        <ele>1423</ele>
        <time>2023-03-18T08:52:21+01:00</time>
      </trkpt>
      <trkpt lat="43.0105" lon="-0.21812">
        <ele>1421</ele>
        <time>2023-03-18T08:52:41+01:00</time>
      </trkpt>
      <trkpt lat="43.01075" lon="-0.21823">
        <ele>1427</ele>
        <time>2023-03-18T08:53:36+01:00</time>
      </trkpt>
      <trkpt lat="43.01099" lon="-0.21833">
        <ele>1425</ele>
        <time>2023-03-18T08:53:52+01:00</time>
      </trkpt>
      <trkpt lat="43.01122" lon="-0.21843">
        <ele>1428</ele>
        <time>2023-03-18T08:54:13+01:00</time>
      </trkpt>
      <trkpt lat="43.01145" lon="-0.21854">
        <ele>1431</ele>
        <time>2023-03-18T08:55:40+01:00</time>
      </trkpt>
      <trkpt lat="43.0117" lon="-0.21855">
        <ele>1434</ele>
        <time>2023-03-18T08:56:34+01:00</time>
      </trkpt>
      <trkpt lat="43.01191" lon="-0.21841">
        <ele>1436</ele>
        <time>2023-03-18T08:57:06+01:00</time>
      </trkpt>
      <trkpt lat="43.01211" lon="-0.21822">
        <ele>1444</ele>
        <time>2023-03-18T08:57:27+01:00</time>
      </trkpt>
      <trkpt lat="43.01228" lon="-0.21798">
        <ele>1451</ele>
        <time>2023-03-18T08:58:03+01:00</time>
      </trkpt>
      <trkpt lat="43.01246" lon="-0.21778">
        <ele>1454</ele>
        <time>2023-03-18T08:58:39+01:00</time>
      </trkpt>
      <trkpt lat="43.01265" lon="-0.21761">
        <ele>1460</ele>
        <time>2023-03-18T08:59:34+01:00</time>
      </trkpt>
      <trkpt lat="43.01285" lon="-0.21748">
        <ele>1464</ele>
        <time>2023-03-18T09:00:09+01:00</time>
      </trkpt>
      <trkpt lat="43.0131" lon="-0.21747">
        <ele>1469</ele>
        <time>2023-03-18T09:00:29+01:00</time>
      </trkpt>
      <trkpt lat="43.01332" lon="-0.21756">
        <ele>1468</ele>
        <time>2023-03-18T09:00:46+01:00</time>
      </trkpt>
      <trkpt lat="43.01355" lon="-0.21772">
        <ele>1460</ele>
        <time>2023-03-18T09:01:01+01:00</time>
      </trkpt>
      <trkpt lat="43.01379" lon="-0.21785">
        <ele>1451</ele>
        <time>2023-03-18T09:01:24+01:00</time>
      </trkpt>
      <trkpt lat="43.01404" lon="-0.21781">
        <ele>1443</ele>
        <time>2023-03-18T09:02:10+01:00</time>
      </trkpt>
      <trkpt lat="43.01423" lon="-0.21763">
        <ele>1444</ele>
        <time>2023-03-18T09:02:24+01:00</time>
      </trkpt>
      <trkpt lat="43.01441" lon="-0.21745">
        <ele>1445</ele>
        <time>2023-03-18T09:02:39+01:00</time>
      </trkpt>
      <trkpt lat="43.01464" lon="-0.21732">
        <ele>1445</ele>
        <time>2023-03-18T09:02:56+01:00</time>
      </trkpt>
      <trkpt lat="43.01479" lon="-0.21704">
        <ele>1442</ele>
        <time>2023-03-18T09:03:14+01:00</time>
      </trkpt>
      <trkpt lat="43.01492" lon="-0.21677">
        <ele>1444</ele>
        <time>2023-03-18T09:03:31+01:00</time>
      </trkpt>
      <trkpt lat="43.01504" lon="-0.21647">
        <ele>1442</ele>
        <time>2023-03-18T09:03:48+01:00</time>
      </trkpt>
      <trkpt lat="43.01523" lon="-0.21629">
        <ele>1442</ele>
        <time>2023-03-18T09:04:05+01:00</time>
      </trkpt>
      <trkpt lat="43.01547" lon="-0.21611">
        <ele>1439</ele>
        <time>2023-03-18T09:04:23+01:00</time>
      </trkpt>
      <trkpt lat="43.01568" lon="-0.21597">
        <ele>1438</ele>
        <time>2023-03-18T09:04:41+01:00</time>
      </trkpt>
      <trkpt lat="43.0159" lon="-0.21575">
        <ele>1438</ele>
        <time>2023-03-18T09:04:59+01:00</time>
      </trkpt>
      <trkpt lat="43.01612" lon="-0.2156">
        <ele>1444</ele>
        <time>2023-03-18T09:06:34+01:00</time>
      </trkpt>
      <trkpt lat="43.01631" lon="-0.21536">
        <ele>1438</ele>
        <time>2023-03-18T09:06:54+01:00</time>
      </trkpt>
      <trkpt lat="43.01653" lon="-0.21519">
        <ele>1438</ele>
        <time>2023-03-18T09:07:12+01:00</time>
      </trkpt>
      <trkpt lat="43.01673" lon="-0.21504">
        <ele>1440</ele>
        <time>2023-03-18T09:07:33+01:00</time>
      </trkpt>
      <trkpt lat="43.01696" lon="-0.21499">
        <ele>1447</ele>
        <time>2023-03-18T09:07:56+01:00</time>
      </trkpt>
      <trkpt lat="43.01719" lon="-0.21505">
        <ele>1453</ele>
        <time>2023-03-18T09:08:26+01:00</time>
      </trkpt>
      <trkpt lat="43.01744" lon="-0.21507">
        <ele>1462</ele>
        <time>2023-03-18T09:09:29+01:00</time>
      </trkpt>
      <trkpt lat="43.01767" lon="-0.21515">
        <ele>1470</ele>
        <time>2023-03-18T09:09:59+01:00</time>
      </trkpt>
      <trkpt lat="43.01792" lon="-0.21521">
        <ele>1479</ele>
        <time>2023-03-18T09:12:04+01:00</time>
      </trkpt>
      <trkpt lat="43.01816" lon="-0.21528">
        <ele>1486</ele>
        <time>2023-03-18T09:12:37+01:00</time>
      </trkpt>
      <trkpt lat="43.0184" lon="-0.21538">
        <ele>1491</ele>
        <time>2023-03-18T09:13:14+01:00</time>
      </trkpt>
      <trkpt lat="43.01858" lon="-0.21558">
        <ele>1495</ele>
        <time>2023-03-18T09:14:06+01:00</time>
      </trkpt>
      <trkpt lat="43.01878" lon="-0.21577">
        <ele>1500</ele>
        <time>2023-03-18T09:14:39+01:00</time>
      </trkpt>
      <trkpt lat="43.01892" lon="-0.21603">
        <ele>1507</ele>
        <time>2023-03-18T09:15:15+01:00</time>
      </trkpt>
      <trkpt lat="43.01906" lon="-0.21627">
        <ele>1513</ele>
        <time>2023-03-18T09:16:25+01:00</time>
      </trkpt>
      <trkpt lat="43.01922" lon="-0.21651">
        <ele>1522</ele>
        <time>2023-03-18T09:17:27+01:00</time>
      </trkpt>
      <trkpt lat="43.01939" lon="-0.21671">
        <ele>1518</ele>
        <time>2023-03-18T09:18:55+01:00</time>
      </trkpt>
      <trkpt lat="43.01957" lon="-0.21691">
        <ele>1522</ele>
        <time>2023-03-18T09:19:30+01:00</time>
      </trkpt>
      <trkpt lat="43.01979" lon="-0.21704">
        <ele>1526</ele>
        <time>2023-03-18T09:20:08+01:00</time>
      </trkpt>
      <trkpt lat="43.02001" lon="-0.21716">
        <ele>1531</ele>
        <time>2023-03-18T09:21:15+01:00</time>
      </trkpt>
      <trkpt lat="43.02015" lon="-0.21742">
        <ele>1536</ele>
        <time>2023-03-18T09:21:47+01:00</time>
      </trkpt>
      <trkpt lat="43.02032" lon="-0.21765">
        <ele>1534</ele>
        <time>2023-03-18T09:22:17+01:00</time>
      </trkpt>
      <trkpt lat="43.02044" lon="-0.21793">
        <ele>1539</ele>
        <time>2023-03-18T09:23:31+01:00</time>
      </trkpt>
      <trkpt lat="43.02064" lon="-0.21807">
        <ele>1544</ele>
        <time>2023-03-18T09:25:15+01:00</time>
      </trkpt>
      <trkpt lat="43.02084" lon="-0.21825">
        <ele>1550</ele>
        <time>2023-03-18T09:27:53+01:00</time>
      </trkpt>
      <trkpt lat="43.02105" lon="-0.21842">
        <ele>1552</ele>
        <time>2023-03-18T09:28:42+01:00</time>
      </trkpt>
      <trkpt lat="43.0211" lon="-0.21873">
        <ele>1559</ele>
        <time>2023-03-18T09:29:49+01:00</time>
      </trkpt>
      <trkpt lat="43.0212" lon="-0.21904">
        <ele>1567</ele>
        <time>2023-03-18T09:30:47+01:00</time>
      </trkpt>
      <trkpt lat="43.02132" lon="-0.21932">
        <ele>1571</ele>
        <time>2023-03-18T09:32:21+01:00</time>
      </trkpt>
      <trkpt lat="43.02153" lon="-0.2195">
        <ele>1576</ele>
        <time>2023-03-18T09:32:48+01:00</time>
      </trkpt>
      <trkpt lat="43.02177" lon="-0.21954">
        <ele>1582</ele>
        <time>2023-03-18T09:33:27+01:00</time>
      </trkpt>
      <trkpt lat="43.02198" lon="-0.21969">
        <ele>1587</ele>
        <time>2023-03-18T09:34:45+01:00</time>
      </trkpt>
      <trkpt lat="43.02222" lon="-0.21981">
        <ele>1601</ele>
        <time>2023-03-18T09:36:07+01:00</time>
      </trkpt>
      <trkpt lat="43.02242" lon="-0.21993">
        <ele>1609</ele>
        <time>2023-03-18T09:37:44+01:00</time>
      </trkpt>
      <trkpt lat="43.0226" lon="-0.22016">
        <ele>1614</ele>
        <time>2023-03-18T09:38:22+01:00</time>
      </trkpt>
      <trkpt lat="43.02272" lon="-0.22044">
        <ele>1625</ele>
        <time>2023-03-18T09:40:07+01:00</time>
      </trkpt>
      <trkpt lat="43.02277" lon="-0.22074">
        <ele>1633</ele>
        <time>2023-03-18T09:40:58+01:00</time>
      </trkpt>
      <trkpt lat="43.02291" lon="-0.221">
        <ele>1645</ele>
        <time>2023-03-18T09:42:54+01:00</time>
      </trkpt>
      <trkpt lat="43.02313" lon="-0.22114">
        <ele>1649</ele>
        <time>2023-03-18T09:43:35+01:00</time>
      </trkpt>
      <trkpt lat="43.02335" lon="-0.22117">
        <ele>1651</ele>
        <time>2023-03-18T09:44:10+01:00</time>
      </trkpt>
      <trkpt lat="43.0236" lon="-0.22119">
        <ele>1645</ele>
        <time>2023-03-18T09:44:33+01:00</time>
      </trkpt>
      <trkpt lat="43.02381" lon="-0.22131">
        <ele>1649</ele>
        <time>2023-03-18T09:44:51+01:00</time>
      </trkpt>
      <trkpt lat="43.02404" lon="-0.22138">
        <ele>1652</ele>
        <time>2023-03-18T09:45:18+01:00</time>
      </trkpt>
      <trkpt lat="43.02427" lon="-0.22144">
        <ele>1657</ele>
        <time>2023-03-18T09:45:55+01:00</time>
      </trkpt>
      <trkpt lat="43.02447" lon="-0.22163">
        <ele>1658</ele>
        <time>2023-03-18T09:46:25+01:00</time>
      </trkpt>
      <trkpt lat="43.02461" lon="-0.22189">
        <ele>1671</ele>
        <time>2023-03-18T09:47:52+01:00</time>
      </trkpt>
      <trkpt lat="43.0247" lon="-0.22218">
        <ele>1678</ele>
        <time>2023-03-18T09:48:46+01:00</time>
      </trkpt>
      <trkpt lat="43.0248" lon="-0.22251">
        <ele>1694</ele>
        <time>2023-03-18T09:51:52+01:00</time>
      </trkpt>
      <trkpt lat="43.02488" lon="-0.22286">
        <ele>1699</ele>
        <time>2023-03-18T09:53:17+01:00</time>
      </trkpt>
      <trkpt lat="43.02493" lon="-0.22316">
        <ele>1710</ele>
        <time>2023-03-18T09:54:22+01:00</time>
      </trkpt>
      <trkpt lat="43.02499" lon="-0.22348">
        <ele>1717</ele>
        <time>2023-03-18T09:56:02+01:00</time>
      </trkpt>
      <trkpt lat="43.02542" lon="-0.2236">
        <ele>1734</ele>
        <time>2023-03-18T09:59:42+01:00</time>
      </trkpt>
      <trkpt lat="43.02565" lon="-0.22338">
        <ele>1749</ele>
        <time>2023-03-18T10:03:42+01:00</time>
      </trkpt>
      <trkpt lat="43.02581" lon="-0.22315">
        <ele>1758</ele>
        <time>2023-03-18T10:04:17+01:00</time>
      </trkpt>
      <trkpt lat="43.02602" lon="-0.223">
        <ele>1763</ele>
        <time>2023-03-18T10:06:22+01:00</time>
      </trkpt>
      <trkpt lat="43.02622" lon="-0.22283">
        <ele>1766</ele>
        <time>2023-03-18T10:06:47+01:00</time>
      </trkpt>
      <trkpt lat="43.02646" lon="-0.22275">
        <ele>1774</ele>
        <time>2023-03-18T10:07:22+01:00</time>
      </trkpt>
      <trkpt lat="43.02669" lon="-0.22262">
        <ele>1783</ele>
        <time>2023-03-18T10:09:42+01:00</time>
      </trkpt>
      <trkpt lat="43.02692" lon="-0.22258">
        <ele>1788</ele>
        <time>2023-03-18T10:10:12+01:00</time>
      </trkpt>
      <trkpt lat="43.02715" lon="-0.2225">
        <ele>1794</ele>
        <time>2023-03-18T10:10:57+01:00</time>
      </trkpt>
      <trkpt lat="43.02739" lon="-0.22242">
        <ele>1800</ele>
        <time>2023-03-18T10:11:37+01:00</time>
      </trkpt>
      <trkpt lat="43.02766" lon="-0.22242">
        <ele>1802</ele>
        <time>2023-03-18T10:12:57+01:00</time>
      </trkpt>
      <trkpt lat="43.02789" lon="-0.22243">
        <ele>1809</ele>
        <time>2023-03-18T10:13:22+01:00</time>
      </trkpt>
      <trkpt lat="43.02815" lon="-0.2225">
        <ele>1811</ele>
        <time>2023-03-18T10:14:02+01:00</time>
      </trkpt>
      <trkpt lat="43.02839" lon="-0.22257">
        <ele>1812</ele>
        <time>2023-03-18T10:14:26+01:00</time>
      </trkpt>
      <trkpt lat="43.02865" lon="-0.22268">
        <ele>1815</ele>
        <time>2023-03-18T10:14:59+01:00</time>
      </trkpt>
      <trkpt lat="43.02887" lon="-0.22276">
        <ele>1818</ele>
        <time>2023-03-18T10:15:27+01:00</time>
      </trkpt>
      <trkpt lat="43.02913" lon="-0.22279">
        <ele>1820</ele>
        <time>2023-03-18T10:15:59+01:00</time>
      </trkpt>
      <trkpt lat="43.02935" lon="-0.22282">
        <ele>1826</ele>
        <time>2023-03-18T10:16:22+01:00</time>
      </trkpt>
      <trkpt lat="43.02957" lon="-0.22266">
        <ele>1820</ele>
        <time>2023-03-18T10:17:32+01:00</time>
      </trkpt>
      <trkpt lat="43.0298" lon="-0.22251">
        <ele>1822</ele>
        <time>2023-03-18T10:17:52+01:00</time>
      </trkpt>
      <trkpt lat="43.03" lon="-0.22235">
        <ele>1824</ele>
        <time>2023-03-18T10:18:11+01:00</time>
      </trkpt>
      <trkpt lat="43.03046" lon="-0.22234">
        <ele>1829</ele>
        <time>2023-03-18T10:19:26+01:00</time>
      </trkpt>
      <trkpt lat="43.0307" lon="-0.22235">
        <ele>1834</ele>
        <time>2023-03-18T10:19:44+01:00</time>
      </trkpt>
      <trkpt lat="43.03093" lon="-0.22246">
        <ele>1839</ele>
        <time>2023-03-18T10:20:11+01:00</time>
      </trkpt>
      <trkpt lat="43.03116" lon="-0.22259">
        <ele>1844</ele>
        <time>2023-03-18T10:20:57+01:00</time>
      </trkpt>
      <trkpt lat="43.03135" lon="-0.2228">
        <ele>1850</ele>
        <time>2023-03-18T10:21:42+01:00</time>
      </trkpt>
      <trkpt lat="43.03156" lon="-0.22298">
        <ele>1857</ele>
        <time>2023-03-18T10:22:12+01:00</time>
      </trkpt>
      <trkpt lat="43.03179" lon="-0.22312">
        <ele>1862</ele>
        <time>2023-03-18T10:23:02+01:00</time>
      </trkpt>
      <trkpt lat="43.03196" lon="-0.22332">
        <ele>1867</ele>
        <time>2023-03-18T10:23:49+01:00</time>
      </trkpt>
      <trkpt lat="43.03217" lon="-0.22347">
        <ele>1866</ele>
        <time>2023-03-18T10:24:17+01:00</time>
      </trkpt>
      <trkpt lat="43.03237" lon="-0.22361">
        <ele>1873</ele>
        <time>2023-03-18T10:25:57+01:00</time>
      </trkpt>
      <trkpt lat="43.03307" lon="-0.22391">
        <ele>1866</ele>
        <time>2023-03-18T10:27:37+01:00</time>
      </trkpt>
      <trkpt lat="43.0333" lon="-0.22401">
        <ele>1877</ele>
        <time>2023-03-18T10:28:27+01:00</time>
      </trkpt>
      <trkpt lat="43.03353" lon="-0.22398">
        <ele>1888</ele>
        <time>2023-03-18T10:29:49+01:00</time>
      </trkpt>
      <trkpt lat="43.03377" lon="-0.22392">
        <ele>1902</ele>
        <time>2023-03-18T10:31:47+01:00</time>
      </trkpt>
      <trkpt lat="43.03352" lon="-0.224">
        <ele>1891</ele>
        <time>2023-03-18T10:42:47+01:00</time>
      </trkpt>
      <trkpt lat="43.03329" lon="-0.22396">
        <ele>1884</ele>
        <time>2023-03-18T10:44:47+01:00</time>
      </trkpt>
      <trkpt lat="43.03263" lon="-0.22362">
        <ele>1863</ele>
        <time>2023-03-18T10:46:26+01:00</time>
      </trkpt>
      <trkpt lat="43.03239" lon="-0.22366">
        <ele>1864</ele>
        <time>2023-03-18T10:46:50+01:00</time>
      </trkpt>
      <trkpt lat="43.03215" lon="-0.22359">
        <ele>1861</ele>
        <time>2023-03-18T10:48:07+01:00</time>
      </trkpt>
      <trkpt lat="43.03195" lon="-0.22343">
        <ele>1852</ele>
        <time>2023-03-18T10:48:44+01:00</time>
      </trkpt>
      <trkpt lat="43.03175" lon="-0.22323">
        <ele>1858</ele>
        <time>2023-03-18T10:49:22+01:00</time>
      </trkpt>
      <trkpt lat="43.03155" lon="-0.22301">
        <ele>1853</ele>
        <time>2023-03-18T10:51:07+01:00</time>
      </trkpt>
      <trkpt lat="43.03136" lon="-0.22279">
        <ele>1858</ele>
        <time>2023-03-18T10:53:17+01:00</time>
      </trkpt>
      <trkpt lat="43.03116" lon="-0.22258">
        <ele>1849</ele>
        <time>2023-03-18T10:53:42+01:00</time>
      </trkpt>
      <trkpt lat="43.03093" lon="-0.22249">
        <ele>1841</ele>
        <time>2023-03-18T10:54:02+01:00</time>
      </trkpt>
      <trkpt lat="43.03068" lon="-0.22235">
        <ele>1834</ele>
        <time>2023-03-18T10:54:22+01:00</time>
      </trkpt>
      <trkpt lat="43.03044" lon="-0.22233">
        <ele>1828</ele>
        <time>2023-03-18T10:54:57+01:00</time>
      </trkpt>
      <trkpt lat="43.03016" lon="-0.22228">
        <ele>1828</ele>
        <time>2023-03-18T10:55:17+01:00</time>
      </trkpt>
      <trkpt lat="43.0299" lon="-0.22233">
        <ele>1829</ele>
        <time>2023-03-18T10:55:37+01:00</time>
      </trkpt>
      <trkpt lat="43.02963" lon="-0.2224">
        <ele>1829</ele>
        <time>2023-03-18T10:56:02+01:00</time>
      </trkpt>
      <trkpt lat="43.0294" lon="-0.22249">
        <ele>1837</ele>
        <time>2023-03-18T10:56:32+01:00</time>
      </trkpt>
      <trkpt lat="43.02916" lon="-0.22249">
        <ele>1837</ele>
        <time>2023-03-18T10:57:39+01:00</time>
      </trkpt>
      <trkpt lat="43.02891" lon="-0.22245">
        <ele>1833</ele>
        <time>2023-03-18T10:58:04+01:00</time>
      </trkpt>
      <trkpt lat="43.02871" lon="-0.22233">
        <ele>1832</ele>
        <time>2023-03-18T10:58:27+01:00</time>
      </trkpt>
      <trkpt lat="43.0285" lon="-0.22215">
        <ele>1833</ele>
        <time>2023-03-18T10:58:56+01:00</time>
      </trkpt>
      <trkpt lat="43.02825" lon="-0.22199">
        <ele>1831</ele>
        <time>2023-03-18T11:00:04+01:00</time>
      </trkpt>
      <trkpt lat="43.02759" lon="-0.22176">
        <ele>1831</ele>
        <time>2023-03-18T11:02:22+01:00</time>
      </trkpt>
      <trkpt lat="43.0274" lon="-0.22156">
        <ele>1839</ele>
        <time>2023-03-18T11:03:03+01:00</time>
      </trkpt>
      <trkpt lat="43.02708" lon="-0.22111">
        <ele>1859</ele>
        <time>2023-03-18T11:05:19+01:00</time>
      </trkpt>
      <trkpt lat="43.02693" lon="-0.22088">
        <ele>1863</ele>
        <time>2023-03-18T11:07:29+01:00</time>
      </trkpt>
      <trkpt lat="43.02676" lon="-0.22062">
        <ele>1876</ele>
        <time>2023-03-18T11:08:24+01:00</time>
      </trkpt>
      <trkpt lat="43.02662" lon="-0.22037">
        <ele>1878</ele>
        <time>2023-03-18T11:09:24+01:00</time>
      </trkpt>
      <trkpt lat="43.02647" lon="-0.22011">
        <ele>1880</ele>
        <time>2023-03-18T11:10:29+01:00</time>
      </trkpt>
      <trkpt lat="43.02633" lon="-0.21986">
        <ele>1882</ele>
        <time>2023-03-18T11:10:56+01:00</time>
      </trkpt>
      <trkpt lat="43.0262" lon="-0.21957">
        <ele>1883</ele>
        <time>2023-03-18T11:12:24+01:00</time>
      </trkpt>
      <trkpt lat="43.02605" lon="-0.21931">
        <ele>1877</ele>
        <time>2023-03-18T11:12:59+01:00</time>
      </trkpt>
      <trkpt lat="43.0259" lon="-0.21908">
        <ele>1880</ele>
        <time>2023-03-18T11:13:34+01:00</time>
      </trkpt>
      <trkpt lat="43.02571" lon="-0.21884">
        <ele>1881</ele>
        <time>2023-03-18T11:14:14+01:00</time>
      </trkpt>
      <trkpt lat="43.02554" lon="-0.21859">
        <ele>1877</ele>
        <time>2023-03-18T11:14:39+01:00</time>
      </trkpt>
      <trkpt lat="43.02536" lon="-0.2183">
        <ele>1881</ele>
        <time>2023-03-18T11:15:04+01:00</time>
      </trkpt>
      <trkpt lat="43.02523" lon="-0.21803">
        <ele>1882</ele>
        <time>2023-03-18T11:15:34+01:00</time>
      </trkpt>
      <trkpt lat="43.025" lon="-0.21744">
        <ele>1894</ele>
        <time>2023-03-18T11:17:29+01:00</time>
      </trkpt>
      <trkpt lat="43.0249" lon="-0.21717">
        <ele>1898</ele>
        <time>2023-03-18T11:17:53+01:00</time>
      </trkpt>
      <trkpt lat="43.0248" lon="-0.21685">
        <ele>1901</ele>
        <time>2023-03-18T11:18:21+01:00</time>
      </trkpt>
      <trkpt lat="43.02467" lon="-0.21657">
        <ele>1902</ele>
        <time>2023-03-18T11:18:55+01:00</time>
      </trkpt>
      <trkpt lat="43.02457" lon="-0.21624">
        <ele>1911</ele>
        <time>2023-03-18T11:20:54+01:00</time>
      </trkpt>
      <trkpt lat="43.02452" lon="-0.21589">
        <ele>1913</ele>
        <time>2023-03-18T11:21:49+01:00</time>
      </trkpt>
      <trkpt lat="43.02456" lon="-0.21528">
        <ele>1920</ele>
        <time>2023-03-18T11:25:13+01:00</time>
      </trkpt>
      <trkpt lat="43.02475" lon="-0.2147">
        <ele>1920</ele>
        <time>2023-03-18T11:26:48+01:00</time>
      </trkpt>
      <trkpt lat="43.02483" lon="-0.21437">
        <ele>1930</ele>
        <time>2023-03-18T11:27:28+01:00</time>
      </trkpt>
      <trkpt lat="43.02488" lon="-0.21404">
        <ele>1930</ele>
        <time>2023-03-18T11:27:50+01:00</time>
      </trkpt>
      <trkpt lat="43.02492" lon="-0.21368">
        <ele>1929</ele>
        <time>2023-03-18T11:28:15+01:00</time>
      </trkpt>
      <trkpt lat="43.02506" lon="-0.21342">
        <ele>1938</ele>
        <time>2023-03-18T11:28:45+01:00</time>
      </trkpt>
      <trkpt lat="43.02523" lon="-0.21322">
        <ele>1934</ele>
        <time>2023-03-18T11:30:20+01:00</time>
      </trkpt>
      <trkpt lat="43.02541" lon="-0.21301">
        <ele>1931</ele>
        <time>2023-03-18T11:30:50+01:00</time>
      </trkpt>
      <trkpt lat="43.02558" lon="-0.21277">
        <ele>1923</ele>
        <time>2023-03-18T11:32:10+01:00</time>
      </trkpt>
      <trkpt lat="43.02591" lon="-0.21233">
        <ele>1900</ele>
        <time>2023-03-18T11:35:15+01:00</time>
      </trkpt>
      <trkpt lat="43.02614" lon="-0.21225">
        <ele>1897</ele>
        <time>2023-03-18T11:36:35+01:00</time>
      </trkpt>
      <trkpt lat="43.02635" lon="-0.21213">
        <ele>1899</ele>
        <time>2023-03-18T11:39:25+01:00</time>
      </trkpt>
      <trkpt lat="43.02657" lon="-0.21195">
        <ele>1900</ele>
        <time>2023-03-18T11:43:10+01:00</time>
      </trkpt>
      <trkpt lat="43.02675" lon="-0.21174">
        <ele>1905</ele>
        <time>2023-03-18T11:44:10+01:00</time>
      </trkpt>
      <trkpt lat="43.02699" lon="-0.21168">
        <ele>1898</ele>
        <time>2023-03-18T11:47:20+01:00</time>
      </trkpt>
      <trkpt lat="43.02718" lon="-0.21152">
        <ele>1896</ele>
        <time>2023-03-18T11:47:45+01:00</time>
      </trkpt>
      <trkpt lat="43.02755" lon="-0.21111">
        <ele>1882</ele>
        <time>2023-03-18T11:50:50+01:00</time>
      </trkpt>
      <trkpt lat="43.0276" lon="-0.21079">
        <ele>1869</ele>
        <time>2023-03-18T11:52:05+01:00</time>
      </trkpt>
      <trkpt lat="43.02764" lon="-0.21048">
        <ele>1856</ele>
        <time>2023-03-18T11:52:45+01:00</time>
      </trkpt>
      <trkpt lat="43.02772" lon="-0.21015">
        <ele>1848</ele>
        <time>2023-03-18T11:53:35+01:00</time>
      </trkpt>
      <trkpt lat="43.02782" lon="-0.20983">
        <ele>1838</ele>
        <time>2023-03-18T11:54:45+01:00</time>
      </trkpt>
      <trkpt lat="43.0276" lon="-0.20973">
        <ele>1825</ele>
        <time>2023-03-18T11:56:40+01:00</time>
      </trkpt>
      <trkpt lat="43.02735" lon="-0.20974">
        <ele>1815</ele>
        <time>2023-03-18T11:57:10+01:00</time>
      </trkpt>
      <trkpt lat="43.02711" lon="-0.20972">
        <ele>1805</ele>
        <time>2023-03-18T11:57:55+01:00</time>
      </trkpt>
      <trkpt lat="43.02687" lon="-0.20979">
        <ele>1795</ele>
        <time>2023-03-18T11:58:35+01:00</time>
      </trkpt>
      <trkpt lat="43.02665" lon="-0.20992">
        <ele>1784</ele>
        <time>2023-03-18T12:04:30+01:00</time>
      </trkpt>
      <trkpt lat="43.02658" lon="-0.20907">
        <ele>1767</ele>
        <time>2023-03-18T12:23:32+01:00</time>
      </trkpt>
      <trkpt lat="43.02573" lon="-0.2096">
        <ele>1744</ele>
        <time>2023-03-18T12:27:41+01:00</time>
      </trkpt>
      <trkpt lat="43.02549" lon="-0.2096">
        <ele>1741</ele>
        <time>2023-03-18T12:28:09+01:00</time>
      </trkpt>
      <trkpt lat="43.02499" lon="-0.20967">
        <ele>1726</ele>
        <time>2023-03-18T12:30:09+01:00</time>
      </trkpt>
      <trkpt lat="43.02475" lon="-0.20972">
        <ele>1713</ele>
        <time>2023-03-18T12:31:09+01:00</time>
      </trkpt>
      <trkpt lat="43.02454" lon="-0.20987">
        <ele>1705</ele>
        <time>2023-03-18T12:31:44+01:00</time>
      </trkpt>
      <trkpt lat="43.0243" lon="-0.20994">
        <ele>1697</ele>
        <time>2023-03-18T12:32:12+01:00</time>
      </trkpt>
      <trkpt lat="43.02406" lon="-0.20995">
        <ele>1694</ele>
        <time>2023-03-18T12:32:55+01:00</time>
      </trkpt>
      <trkpt lat="43.02382" lon="-0.21">
        <ele>1684</ele>
        <time>2023-03-18T12:34:09+01:00</time>
      </trkpt>
      <trkpt lat="43.02336" lon="-0.20994">
        <ele>1669</ele>
        <time>2023-03-18T12:35:03+01:00</time>
      </trkpt>
      <trkpt lat="43.02312" lon="-0.20993">
        <ele>1660</ele>
        <time>2023-03-18T12:36:19+01:00</time>
      </trkpt>
      <trkpt lat="43.02296" lon="-0.20967">
        <ele>1651</ele>
        <time>2023-03-18T12:37:24+01:00</time>
      </trkpt>
      <trkpt lat="43.02275" lon="-0.20947">
        <ele>1649</ele>
        <time>2023-03-18T12:39:19+01:00</time>
      </trkpt>
      <trkpt lat="43.02253" lon="-0.2093">
        <ele>1646</ele>
        <time>2023-03-18T12:40:13+01:00</time>
      </trkpt>
      <trkpt lat="43.0223" lon="-0.20927">
        <ele>1637</ele>
        <time>2023-03-18T12:40:36+01:00</time>
      </trkpt>
      <trkpt lat="43.02211" lon="-0.20911">
        <ele>1631</ele>
        <time>2023-03-18T12:41:01+01:00</time>
      </trkpt>
      <trkpt lat="43.02187" lon="-0.20913">
        <ele>1623</ele>
        <time>2023-03-18T12:41:24+01:00</time>
      </trkpt>
      <trkpt lat="43.02169" lon="-0.20931">
        <ele>1617</ele>
        <time>2023-03-18T12:41:49+01:00</time>
      </trkpt>
      <trkpt lat="43.02146" lon="-0.20936">
        <ele>1616</ele>
        <time>2023-03-18T12:42:14+01:00</time>
      </trkpt>
      <trkpt lat="43.02124" lon="-0.2094">
        <ele>1617</ele>
        <time>2023-03-18T12:42:59+01:00</time>
      </trkpt>
      <trkpt lat="43.02106" lon="-0.20964">
        <ele>1611</ele>
        <time>2023-03-18T12:43:29+01:00</time>
      </trkpt>
      <trkpt lat="43.02088" lon="-0.20989">
        <ele>1606</ele>
        <time>2023-03-18T12:43:54+01:00</time>
      </trkpt>
      <trkpt lat="43.02072" lon="-0.21021">
        <ele>1597</ele>
        <time>2023-03-18T12:44:19+01:00</time>
      </trkpt>
      <trkpt lat="43.02057" lon="-0.21043">
        <ele>1591</ele>
        <time>2023-03-18T12:44:49+01:00</time>
      </trkpt>
      <trkpt lat="43.0204" lon="-0.21071">
        <ele>1579</ele>
        <time>2023-03-18T12:46:32+01:00</time>
      </trkpt>
      <trkpt lat="43.02023" lon="-0.21094">
        <ele>1571</ele>
        <time>2023-03-18T12:47:12+01:00</time>
      </trkpt>
      <trkpt lat="43.0201" lon="-0.21119">
        <ele>1560</ele>
        <time>2023-03-18T12:47:52+01:00</time>
      </trkpt>
      <trkpt lat="43.01992" lon="-0.21144">
        <ele>1553</ele>
        <time>2023-03-18T12:48:32+01:00</time>
      </trkpt>
      <trkpt lat="43.01974" lon="-0.21162">
        <ele>1542</ele>
        <time>2023-03-18T12:49:37+01:00</time>
      </trkpt>
      <trkpt lat="43.01956" lon="-0.21185">
        <ele>1534</ele>
        <time>2023-03-18T12:50:02+01:00</time>
      </trkpt>
      <trkpt lat="43.01942" lon="-0.21209">
        <ele>1531</ele>
        <time>2023-03-18T12:50:22+01:00</time>
      </trkpt>
      <trkpt lat="43.01924" lon="-0.21233">
        <ele>1528</ele>
        <time>2023-03-18T12:50:42+01:00</time>
      </trkpt>
      <trkpt lat="43.01909" lon="-0.2126">
        <ele>1526</ele>
        <time>2023-03-18T12:51:07+01:00</time>
      </trkpt>
      <trkpt lat="43.01899" lon="-0.2129">
        <ele>1523</ele>
        <time>2023-03-18T12:53:07+01:00</time>
      </trkpt>
      <trkpt lat="43.01879" lon="-0.21317">
        <ele>1515</ele>
        <time>2023-03-18T12:53:37+01:00</time>
      </trkpt>
      <trkpt lat="43.01859" lon="-0.21341">
        <ele>1510</ele>
        <time>2023-03-18T12:54:02+01:00</time>
      </trkpt>
      <trkpt lat="43.01832" lon="-0.21351">
        <ele>1505</ele>
        <time>2023-03-18T12:54:27+01:00</time>
      </trkpt>
      <trkpt lat="43.01811" lon="-0.21367">
        <ele>1504</ele>
        <time>2023-03-18T12:55:42+01:00</time>
      </trkpt>
      <trkpt lat="43.01798" lon="-0.21395">
        <ele>1499</ele>
        <time>2023-03-18T12:56:07+01:00</time>
      </trkpt>
      <trkpt lat="43.01788" lon="-0.21425">
        <ele>1491</ele>
        <time>2023-03-18T12:56:27+01:00</time>
      </trkpt>
      <trkpt lat="43.01781" lon="-0.2146">
        <ele>1488</ele>
        <time>2023-03-18T12:56:52+01:00</time>
      </trkpt>
      <trkpt lat="43.01775" lon="-0.21494">
        <ele>1481</ele>
        <time>2023-03-18T12:57:17+01:00</time>
      </trkpt>
      <trkpt lat="43.01756" lon="-0.2151">
        <ele>1465</ele>
        <time>2023-03-18T12:58:12+01:00</time>
      </trkpt>
      <trkpt lat="43.01728" lon="-0.21503">
        <ele>1461</ele>
        <time>2023-03-18T12:58:37+01:00</time>
      </trkpt>
      <trkpt lat="43.01703" lon="-0.21504">
        <ele>1456</ele>
        <time>2023-03-18T12:59:02+01:00</time>
      </trkpt>
      <trkpt lat="43.01678" lon="-0.21505">
        <ele>1447</ele>
        <time>2023-03-18T12:59:27+01:00</time>
      </trkpt>
      <trkpt lat="43.01657" lon="-0.21516">
        <ele>1444</ele>
        <time>2023-03-18T12:59:47+01:00</time>
      </trkpt>
      <trkpt lat="43.01635" lon="-0.21536">
        <ele>1443</ele>
        <time>2023-03-18T13:00:07+01:00</time>
      </trkpt>
      <trkpt lat="43.01613" lon="-0.21558">
        <ele>1442</ele>
        <time>2023-03-18T13:00:27+01:00</time>
      </trkpt>
      <trkpt lat="43.01591" lon="-0.21575">
        <ele>1445</ele>
        <time>2023-03-18T13:00:47+01:00</time>
      </trkpt>
      <trkpt lat="43.01553" lon="-0.21609">
        <ele>1440</ele>
        <time>2023-03-18T13:03:24+01:00</time>
      </trkpt>
      <trkpt lat="43.01531" lon="-0.21627">
        <ele>1437</ele>
        <time>2023-03-18T13:03:44+01:00</time>
      </trkpt>
      <trkpt lat="43.0151" lon="-0.21649">
        <ele>1440</ele>
        <time>2023-03-18T13:04:05+01:00</time>
      </trkpt>
      <trkpt lat="43.01491" lon="-0.21676">
        <ele>1443</ele>
        <time>2023-03-18T13:05:37+01:00</time>
      </trkpt>
      <trkpt lat="43.01478" lon="-0.21705">
        <ele>1443</ele>
        <time>2023-03-18T13:05:57+01:00</time>
      </trkpt>
      <trkpt lat="43.01462" lon="-0.21736">
        <ele>1444</ele>
        <time>2023-03-18T13:06:17+01:00</time>
      </trkpt>
      <trkpt lat="43.01439" lon="-0.21755">
        <ele>1444</ele>
        <time>2023-03-18T13:06:37+01:00</time>
      </trkpt>
      <trkpt lat="43.01418" lon="-0.21773">
        <ele>1444</ele>
        <time>2023-03-18T13:06:57+01:00</time>
      </trkpt>
      <trkpt lat="43.01391" lon="-0.21783">
        <ele>1451</ele>
        <time>2023-03-18T13:07:22+01:00</time>
      </trkpt>
      <trkpt lat="43.01365" lon="-0.21778">
        <ele>1452</ele>
        <time>2023-03-18T13:08:22+01:00</time>
      </trkpt>
      <trkpt lat="43.01339" lon="-0.21774">
        <ele>1454</ele>
        <time>2023-03-18T13:08:47+01:00</time>
      </trkpt>
      <trkpt lat="43.01312" lon="-0.21768">
        <ele>1459</ele>
        <time>2023-03-18T13:09:12+01:00</time>
      </trkpt>
      <trkpt lat="43.01289" lon="-0.21759">
        <ele>1457</ele>
        <time>2023-03-18T13:09:47+01:00</time>
      </trkpt>
      <trkpt lat="43.01265" lon="-0.21763">
        <ele>1463</ele>
        <time>2023-03-18T13:10:41+01:00</time>
      </trkpt>
      <trkpt lat="43.01247" lon="-0.21785">
        <ele>1452</ele>
        <time>2023-03-18T13:11:27+01:00</time>
      </trkpt>
      <trkpt lat="43.01229" lon="-0.21806">
        <ele>1451</ele>
        <time>2023-03-18T13:11:47+01:00</time>
      </trkpt>
      <trkpt lat="43.01209" lon="-0.21832">
        <ele>1443</ele>
        <time>2023-03-18T13:12:14+01:00</time>
      </trkpt>
      <trkpt lat="43.01186" lon="-0.21844">
        <ele>1438</ele>
        <time>2023-03-18T13:12:34+01:00</time>
      </trkpt>
      <trkpt lat="43.01161" lon="-0.21858">
        <ele>1437</ele>
        <time>2023-03-18T13:12:54+01:00</time>
      </trkpt>
      <trkpt lat="43.01138" lon="-0.21861">
        <ele>1428</ele>
        <time>2023-03-18T13:13:24+01:00</time>
      </trkpt>
      <trkpt lat="43.01121" lon="-0.2184">
        <ele>1426</ele>
        <time>2023-03-18T13:13:47+01:00</time>
      </trkpt>
      <trkpt lat="43.01097" lon="-0.2183">
        <ele>1424</ele>
        <time>2023-03-18T13:14:07+01:00</time>
      </trkpt>
      <trkpt lat="43.01071" lon="-0.21823">
        <ele>1424</ele>
        <time>2023-03-18T13:14:32+01:00</time>
      </trkpt>
      <trkpt lat="43.0105" lon="-0.21811">
        <ele>1421</ele>
        <time>2023-03-18T13:14:47+01:00</time>
      </trkpt>
      <trkpt lat="43.01028" lon="-0.21794">
        <ele>1416</ele>
        <time>2023-03-18T13:15:07+01:00</time>
      </trkpt>
      <trkpt lat="43.01008" lon="-0.21773">
        <ele>1417</ele>
        <time>2023-03-18T13:15:27+01:00</time>
      </trkpt>
      <trkpt lat="43.0099" lon="-0.21753">
        <ele>1412</ele>
        <time>2023-03-18T13:15:47+01:00</time>
      </trkpt>
      <trkpt lat="43.00971" lon="-0.21732">
        <ele>1413</ele>
        <time>2023-03-18T13:16:07+01:00</time>
      </trkpt>
      <trkpt lat="43.00951" lon="-0.21708">
        <ele>1411</ele>
        <time>2023-03-18T13:16:27+01:00</time>
      </trkpt>
      <trkpt lat="43.00967" lon="-0.21684">
        <ele>1409</ele>
        <time>2023-03-18T13:16:52+01:00</time>
      </trkpt>
      <trkpt lat="43.00992" lon="-0.21699">
        <ele>1406</ele>
        <time>2023-03-18T13:17:12+01:00</time>
      </trkpt>
      <trkpt lat="43.01014" lon="-0.21708">
        <ele>1407</ele>
        <time>2023-03-18T13:17:31+01:00</time>
      </trkpt>
      <trkpt lat="43.01039" lon="-0.21718">
        <ele>1406</ele>
        <time>2023-03-18T13:17:52+01:00</time>
      </trkpt>
      <trkpt lat="43.01062" lon="-0.21725">
        <ele>1404</ele>
        <time>2023-03-18T13:18:12+01:00</time>
      </trkpt>
      <trkpt lat="43.01085" lon="-0.21732">
        <ele>1399</ele>
        <time>2023-03-18T13:18:32+01:00</time>
      </trkpt>
      <trkpt lat="43.01107" lon="-0.21716">
        <ele>1393</ele>
        <time>2023-03-18T13:18:57+01:00</time>
      </trkpt>
      <trkpt lat="43.01126" lon="-0.21689">
        <ele>1388</ele>
        <time>2023-03-18T13:19:20+01:00</time>
      </trkpt>
      <trkpt lat="43.01142" lon="-0.21664">
        <ele>1385</ele>
        <time>2023-03-18T13:19:40+01:00</time>
      </trkpt>
      <trkpt lat="43.01163" lon="-0.21644">
        <ele>1382</ele>
        <time>2023-03-18T13:19:59+01:00</time>
      </trkpt>
      <trkpt lat="43.01144" lon="-0.21625">
        <ele>1378</ele>
        <time>2023-03-18T13:20:41+01:00</time>
      </trkpt>
      <trkpt lat="43.01122" lon="-0.21634">
        <ele>1380</ele>
        <time>2023-03-18T13:20:57+01:00</time>
      </trkpt>
      <trkpt lat="43.01098" lon="-0.21638">
        <ele>1380</ele>
        <time>2023-03-18T13:21:15+01:00</time>
      </trkpt>
      <trkpt lat="43.01077" lon="-0.21623">
        <ele>1377</ele>
        <time>2023-03-18T13:21:34+01:00</time>
      </trkpt>
      <trkpt lat="43.01058" lon="-0.21602">
        <ele>1369</ele>
        <time>2023-03-18T13:21:55+01:00</time>
      </trkpt>
      <trkpt lat="43.01039" lon="-0.21581">
        <ele>1362</ele>
        <time>2023-03-18T13:22:14+01:00</time>
      </trkpt>
      <trkpt lat="43.01021" lon="-0.21556">
        <ele>1362</ele>
        <time>2023-03-18T13:22:34+01:00</time>
      </trkpt>
      <trkpt lat="43.01002" lon="-0.21534">
        <ele>1361</ele>
        <time>2023-03-18T13:22:52+01:00</time>
      </trkpt>
      <trkpt lat="43.00985" lon="-0.21512">
        <ele>1357</ele>
        <time>2023-03-18T13:23:12+01:00</time>
      </trkpt>
      <trkpt lat="43.00967" lon="-0.21488">
        <ele>1356</ele>
        <time>2023-03-18T13:23:32+01:00</time>
      </trkpt>
      <trkpt lat="43.00945" lon="-0.21481">
        <ele>1354</ele>
        <time>2023-03-18T13:23:52+01:00</time>
      </trkpt>
      <trkpt lat="43.00926" lon="-0.21464">
        <ele>1349</ele>
        <time>2023-03-18T13:24:12+01:00</time>
      </trkpt>
      <trkpt lat="43.0092" lon="-0.21435">
        <ele>1350</ele>
        <time>2023-03-18T13:24:29+01:00</time>
      </trkpt>
      <trkpt lat="43.0091" lon="-0.21402">
        <ele>1347</ele>
        <time>2023-03-18T13:24:50+01:00</time>
      </trkpt>
      <trkpt lat="43.00904" lon="-0.21368">
        <ele>1343</ele>
        <time>2023-03-18T13:25:09+01:00</time>
      </trkpt>
      <trkpt lat="43.00902" lon="-0.21335">
        <ele>1340</ele>
        <time>2023-03-18T13:25:27+01:00</time>
      </trkpt>
      <trkpt lat="43.00903" lon="-0.21302">
        <ele>1338</ele>
        <time>2023-03-18T13:25:47+01:00</time>
      </trkpt>
      <trkpt lat="43.009" lon="-0.21265">
        <ele>1333</ele>
        <time>2023-03-18T13:26:09+01:00</time>
      </trkpt>
      <trkpt lat="43.00891" lon="-0.21231">
        <ele>1327</ele>
        <time>2023-03-18T13:26:32+01:00</time>
      </trkpt>
      <trkpt lat="43.00878" lon="-0.21199">
        <ele>1326</ele>
        <time>2023-03-18T13:26:52+01:00</time>
      </trkpt>
      <trkpt lat="43.00871" lon="-0.21165">
        <ele>1319</ele>
        <time>2023-03-18T13:27:12+01:00</time>
      </trkpt>
      <trkpt lat="43.00868" lon="-0.21128">
        <ele>1320</ele>
        <time>2023-03-18T13:27:35+01:00</time>
      </trkpt>
      <trkpt lat="43.00866" lon="-0.21096">
        <ele>1316</ele>
        <time>2023-03-18T13:27:57+01:00</time>
      </trkpt>
      <trkpt lat="43.00857" lon="-0.21066">
        <ele>1309</ele>
        <time>2023-03-18T13:28:27+01:00</time>
      </trkpt>
      <trkpt lat="43.00853" lon="-0.2105">
        <ele>1308</ele>
        <time>2023-03-18T13:28:42+01:00</time>
      </trkpt>
      <trkpt lat="43.00846" lon="-0.21015">
        <ele>1306</ele>
        <time>2023-03-18T13:29:01+01:00</time>
      </trkpt>
      <trkpt lat="43.0082" lon="-0.21009">
        <ele>1304</ele>
        <time>2023-03-18T13:29:28+01:00</time>
      </trkpt>
      <trkpt lat="43.00794" lon="-0.21003">
        <ele>1305</ele>
        <time>2023-03-18T13:29:46+01:00</time>
      </trkpt>
      <trkpt lat="43.0077" lon="-0.20992">
        <ele>1304</ele>
        <time>2023-03-18T13:30:06+01:00</time>
      </trkpt>
      <trkpt lat="43.00745" lon="-0.20999">
        <ele>1306</ele>
        <time>2023-03-18T13:30:28+01:00</time>
      </trkpt>
      <trkpt lat="43.00732" lon="-0.21024">
        <ele>1302</ele>
        <time>2023-03-18T13:30:44+01:00</time>
      </trkpt>
      <trkpt lat="43.00717" lon="-0.21053">
        <ele>1297</ele>
        <time>2023-03-18T13:31:05+01:00</time>
      </trkpt>
      <trkpt lat="43.00692" lon="-0.21064">
        <ele>1294</ele>
        <time>2023-03-18T13:31:27+01:00</time>
      </trkpt>
      <trkpt lat="43.0067" lon="-0.21075">
        <ele>1290</ele>
        <time>2023-03-18T13:31:44+01:00</time>
      </trkpt>
      <trkpt lat="43.00649" lon="-0.21093">
        <ele>1291</ele>
        <time>2023-03-18T13:32:03+01:00</time>
      </trkpt>
      <trkpt lat="43.00631" lon="-0.21116">
        <ele>1282</ele>
        <time>2023-03-18T13:32:32+01:00</time>
      </trkpt>
      <trkpt lat="43.00613" lon="-0.21135">
        <ele>1279</ele>
        <time>2023-03-18T13:32:48+01:00</time>
      </trkpt>
      <trkpt lat="43.0059" lon="-0.21151">
        <ele>1277</ele>
        <time>2023-03-18T13:33:08+01:00</time>
      </trkpt>
      <trkpt lat="43.00573" lon="-0.21176">
        <ele>1276</ele>
        <time>2023-03-18T13:33:27+01:00</time>
      </trkpt>
      <trkpt lat="43.00552" lon="-0.21191">
        <ele>1273</ele>
        <time>2023-03-18T13:33:45+01:00</time>
      </trkpt>
      <trkpt lat="43.00529" lon="-0.21205">
        <ele>1269</ele>
        <time>2023-03-18T13:34:05+01:00</time>
      </trkpt>
      <trkpt lat="43.00507" lon="-0.21222">
        <ele>1265</ele>
        <time>2023-03-18T13:34:23+01:00</time>
      </trkpt>
      <trkpt lat="43.00486" lon="-0.21236">
        <ele>1262</ele>
        <time>2023-03-18T13:34:49+01:00</time>
      </trkpt>
      <trkpt lat="43.00464" lon="-0.21254">
        <ele>1261</ele>
        <time>2023-03-18T13:35:08+01:00</time>
      </trkpt>
      <trkpt lat="43.00444" lon="-0.21275">
        <ele>1263</ele>
        <time>2023-03-18T13:35:26+01:00</time>
      </trkpt>
      <trkpt lat="43.00424" lon="-0.21297">
        <ele>1257</ele>
        <time>2023-03-18T13:35:45+01:00</time>
      </trkpt>
      <trkpt lat="43.00402" lon="-0.21307">
        <ele>1256</ele>
        <time>2023-03-18T13:36:01+01:00</time>
      </trkpt>
      <trkpt lat="43.0038" lon="-0.21328">
        <ele>1252</ele>
        <time>2023-03-18T13:36:20+01:00</time>
      </trkpt>
      <trkpt lat="43.00362" lon="-0.21351">
        <ele>1246</ele>
        <time>2023-03-18T13:36:38+01:00</time>
      </trkpt>
      <trkpt lat="43.0034" lon="-0.21359">
        <ele>1245</ele>
        <time>2023-03-18T13:36:53+01:00</time>
      </trkpt>
      <trkpt lat="43.00316" lon="-0.21362">
        <ele>1246</ele>
        <time>2023-03-18T13:37:11+01:00</time>
      </trkpt>
      <trkpt lat="43.00295" lon="-0.21372">
        <ele>1239</ele>
        <time>2023-03-18T13:37:29+01:00</time>
      </trkpt>
      <trkpt lat="43.00275" lon="-0.21392">
        <ele>1233</ele>
        <time>2023-03-18T13:37:48+01:00</time>
      </trkpt>
      <trkpt lat="43.00252" lon="-0.21403">
        <ele>1240</ele>
        <time>2023-03-18T13:38:09+01:00</time>
      </trkpt>
    </trkseg>
  </trk>
</gpx>